Time;durP1;ratioP1;P1;durP2;ratioP2;P2;SDS_P1;SDS_P2;PMS_P1;PMS_P2;Temp;Humidity;BMP_temperature;BMP_pressure;BME280_temperature;BME280_humidity;BME280_pressure;Samples;Min_cycle;Max_cycle;Signal;HPM_P1;HPM_P2
2023/12/06 00:02:12;;;;;;;;;;;;;;;4.84;nan;101272.34;5090655;28;20405;-83
2023/12/06 00:04:37;;;;;;;;;;;;;;;4.86;nan;101265.03;5089231;28;19924;-84
2023/12/06 00:07:02;;;;;;;;;;;;;;;4.86;nan;101270.34;5094448;28;20382;-84
2023/12/06 00:09:28;;;;;;;;;;;;;;;4.84;nan;101269.72;5086006;28;20295;-84
2023/12/06 00:11:53;;;;;;;;;;;;;;;4.80;nan;101266.63;5090134;28;19920;-84
2023/12/06 00:14:18;;;;;;;;;;;;;;;4.82;nan;101271.75;5090961;28;19930;-84
2023/12/06 00:16:43;;;;;;;;;;;;;;;4.88;nan;101275.47;5088912;28;19919;-84
2023/12/06 00:19:09;;;;;;;;;;;;;;;4.90;nan;101276.09;5087353;28;19916;-84
2023/12/06 00:21:34;;;;;;;;;;;;;;;4.92;nan;101274.03;5090245;28;19967;-84
2023/12/06 00:24:00;;;;;;;;;;;;;;;4.93;nan;101273.84;5087068;28;19924;-83
2023/12/06 00:26:25;;;;;;;;;;;;;;;4.93;nan;101276.50;5093127;28;20402;-84
2023/12/06 00:28:51;;;;;;;;;;;;;;;4.95;nan;101271.00;5090940;28;20572;-84
2023/12/06 00:31:17;;;;;;;;;;;;;;;4.97;nan;101271.59;5074988;28;19920;-84
2023/12/06 00:33:42;;;;;;;;;;;;;;;4.98;nan;101275.91;5088307;28;20026;-84
2023/12/06 00:36:07;;;;;;;;;;;;;;;4.98;nan;101273.25;5072880;28;19920;-84
2023/12/06 00:38:33;;;;;;;;;;;;;;;4.98;nan;101273.25;5071537;28;19920;-84
2023/12/06 00:40:59;;;;;;;;;;;;;;;4.98;nan;101266.09;5091124;28;20379;-84
2023/12/06 00:43:25;;;;;;;;;;;;;;;4.96;nan;101265.47;5082139;28;19920;-84
2023/12/06 00:45:50;;;;;;;;;;;;;;;4.98;nan;101267.94;5093290;28;20436;-84
2023/12/06 00:48:15;;;;;;;;;;;;;;;5.00;nan;101266.72;5092413;28;20404;-84
2023/12/06 00:50:42;;;;;;;;;;;;;;;4.99;nan;101270.38;5094272;28;19924;-84
2023/12/06 00:53:07;;;;;;;;;;;;;;;4.98;nan;101275.91;5085459;28;19916;-84
2023/12/06 00:55:32;;;;;;;;;;;;;;;4.96;nan;101270.78;5091230;28;19920;-84
2023/12/06 00:57:57;;;;;;;;;;;;;;;4.97;nan;101267.13;5087987;28;19920;-84
2023/12/06 01:00:23;;;;;;;;;;;;;;;4.98;nan;101263.44;5090710;28;19959;-84
2023/12/06 01:02:48;;;;;;;;;;;;;;;5.00;nan;101257.94;5087739;28;19920;-84
2023/12/06 01:05:13;;;;;;;;;;;;;;;5.01;nan;101252.41;5089334;28;19935;-84
2023/12/06 01:07:39;;;;;;;;;;;;;;;5.00;nan;101261.41;5091632;28;19916;-83
2023/12/06 01:10:04;;;;;;;;;;;;;;;5.02;nan;101255.88;5086481;28;19951;-84
2023/12/06 01:12:30;;;;;;;;;;;;;;;5.04;nan;101257.34;5086055;28;20014;-83
2023/12/06 01:14:55;;;;;;;;;;;;;;;5.06;nan;101250.00;5090298;28;19916;-84
2023/12/06 01:17:20;;;;;;;;;;;;;;;5.09;nan;101259.41;5086664;28;19920;-83
2023/12/06 01:19:46;;;;;;;;;;;;;;;5.07;nan;101264.09;5081984;28;19916;-84
2023/12/06 01:22:11;;;;;;;;;;;;;;;5.07;nan;101278.19;5088492;28;19924;-84
2023/12/06 01:24:36;;;;;;;;;;;;;;;5.08;nan;101274.53;5090158;28;19920;-83
2023/12/06 01:27:02;;;;;;;;;;;;;;;5.12;nan;101274.94;5089482;28;19920;-84
2023/12/06 01:29:27;;;;;;;;;;;;;;;5.16;nan;101281.47;5087899;28;19923;-84
2023/12/06 01:31:53;;;;;;;;;;;;;;;5.18;nan;101268.00;5087432;28;19920;-84
2023/12/06 01:34:19;;;;;;;;;;;;;;;5.20;nan;101268.63;5086300;28;19920;-84
2023/12/06 01:36:44;;;;;;;;;;;;;;;5.24;nan;101272.53;5095369;28;19920;-83
2023/12/06 01:39:10;;;;;;;;;;;;;;;5.24;nan;101272.53;5086851;28;19919;-84
2023/12/06 01:41:35;;;;;;;;;;;;;;;5.26;nan;101270.50;5087874;28;19946;-84
2023/12/06 01:44:00;;;;;;;;;;;;;;;5.24;nan;101268.03;5090987;28;19920;-84
2023/12/06 01:46:25;;;;;;;;;;;;;;;5.24;nan;101267.22;5090929;28;19927;-84
2023/12/06 01:48:52;;;;;;;;;;;;;;;5.22;nan;101264.78;5089804;28;19924;-84
2023/12/06 01:51:18;;;;;;;;;;;;;;;5.21;nan;101268.44;5091267;28;19930;-84
2023/12/06 01:53:43;;;;;;;;;;;;;;;5.22;nan;101271.91;5087246;28;19927;-84
2023/12/06 01:56:10;;;;;;;;;;;;;;;5.22;nan;101264.78;5086933;28;20421;-83
2023/12/06 01:58:38;;;;;;;;;;;;;;;5.24;nan;101262.72;5087307;28;19939;-84
2023/12/06 02:01:07;;;;;;;;;;;;;;;5.24;nan;101257.41;5086936;28;19943;-84
2023/12/06 02:03:34;;;;;;;;;;;;;;;5.25;nan;101256.41;5084535;28;19979;-83
2023/12/06 02:06:00;;;;;;;;;;;;;;;5.25;nan;101259.06;5085520;28;19916;-84
2023/12/06 02:08:26;;;;;;;;;;;;;;;5.25;nan;101258.22;5087512;28;19920;-84
2023/12/06 02:10:52;;;;;;;;;;;;;;;5.27;nan;101264.16;5088927;28;19920;-84
2023/12/06 02:13:17;;;;;;;;;;;;;;;5.27;nan;101272.13;5088203;28;19920;-84
2023/12/06 02:15:42;;;;;;;;;;;;;;;5.29;nan;101264.78;5091251;28;20396;-84
2023/12/06 02:18:08;;;;;;;;;;;;;;;5.27;nan;101262.31;5090225;28;19919;-84
2023/12/06 02:20:33;;;;;;;;;;;;;;;5.28;nan;101260.47;5094400;28;20277;-86
2023/12/06 02:22:59;;;;;;;;;;;;;;;5.28;nan;101260.47;5095765;28;19943;-84
2023/12/06 02:25:25;;;;;;;;;;;;;;;5.26;nan;101258.03;5082080;28;19916;-84
2023/12/06 02:27:50;;;;;;;;;;;;;;;5.27;nan;101250.88;5082907;28;19920;-84
2023/12/06 02:30:16;;;;;;;;;;;;;;;5.27;nan;101256.19;5094198;28;19994;-84
2023/12/06 02:32:41;;;;;;;;;;;;;;;5.28;nan;101252.50;5097012;28;19931;-84
2023/12/06 02:35:29;;;;;;;;;;;;;;;5.29;nan;101251.50;5095501;28;19916;-85
2023/12/06 02:37:56;;;;;;;;;;;;;;;5.28;nan;101252.50;5079702;28;19927;-84
2023/12/06 02:40:22;;;;;;;;;;;;;;;5.29;nan;101254.16;5084683;28;19973;-85
2023/12/06 02:42:48;;;;;;;;;;;;;;;5.30;nan;101261.09;5096785;28;20164;-84
2023/12/06 02:45:13;;;;;;;;;;;;;;;5.28;nan;101265.78;5101966;28;19923;-84
2023/12/06 02:47:39;;;;;;;;;;;;;;;5.27;nan;101264.97;5085649;28;20370;-85
2023/12/06 02:50:04;;;;;;;;;;;;;;;5.27;nan;101261.50;5094038;28;20013;-84
2023/12/06 02:52:30;;;;;;;;;;;;;;;5.28;nan;101258.66;5095290;28;19916;-85
2023/12/06 02:54:55;;;;;;;;;;;;;;;5.28;nan;101260.47;5092984;28;19994;-84
2023/12/06 02:57:20;;;;;;;;;;;;;;;5.32;nan;101259.06;5096863;28;20299;-84
2023/12/06 02:59:46;;;;;;;;;;;;;;;5.31;nan;101262.72;5084424;28;20439;-84
2023/12/06 03:02:11;;;;;;;;;;;;;;;5.30;nan;101253.13;5083293;28;20045;-85
2023/12/06 03:04:36;;;;;;;;;;;;;;;5.29;nan;101254.16;5085727;28;20507;-84
2023/12/06 03:07:02;;;;;;;;;;;;;;;5.28;nan;101253.34;5083833;28;21342;-84
2023/12/06 03:09:27;;;;;;;;;;;;;;;5.29;nan;101259.47;5080895;28;20270;-85
2023/12/06 03:11:52;;;;;;;;;;;;;;;5.26;nan;101257.22;5086471;28;19924;-84
2023/12/06 03:14:17;;;;;;;;;;;;;;;5.26;nan;101251.91;5088859;28;19966;-84
2023/12/06 03:16:43;;;;;;;;;;;;;;;5.29;nan;101257.63;5090909;28;19978;-84
2023/12/06 03:19:08;;;;;;;;;;;;;;;5.27;nan;101251.69;5094976;28;20452;-83
2023/12/06 03:21:33;;;;;;;;;;;;;;;5.27;nan;101257.00;5089992;28;19934;-84
2023/12/06 03:23:59;;;;;;;;;;;;;;;5.29;nan;101262.13;5091300;28;20016;-84
2023/12/06 03:26:24;;;;;;;;;;;;;;;5.31;nan;101254.75;5083608;28;20519;-83
2023/12/06 03:28:49;;;;;;;;;;;;;;;5.32;nan;101264.38;5087457;28;20445;-84
2023/12/06 03:31:15;;;;;;;;;;;;;;;5.32;nan;101259.88;5083279;28;20422;-84
2023/12/06 03:33:40;;;;;;;;;;;;;;;5.34;nan;101262.31;5091293;28;20411;-84
2023/12/06 03:36:09;;;;;;;;;;;;;;;5.36;nan;101254.97;5093714;28;20416;-84
2023/12/06 03:38:34;;;;;;;;;;;;;;;5.40;nan;101261.53;5087181;28;19927;-84
2023/12/06 03:41:00;;;;;;;;;;;;;;;5.41;nan;101247.22;5090772;28;20697;-85
2023/12/06 03:43:26;;;;;;;;;;;;;;;5.42;nan;101255.00;5090438;28;19964;-83
2023/12/06 03:45:51;;;;;;;;;;;;;;;5.41;nan;101248.06;5091882;28;20533;-84
2023/12/06 03:48:16;;;;;;;;;;;;;;;5.40;nan;101249.06;5090930;28;20007;-84
2023/12/06 03:50:42;;;;;;;;;;;;;;;5.41;nan;101242.72;5087647;28;20011;-84
2023/12/06 03:53:08;;;;;;;;;;;;;;;5.40;nan;101246.41;5095898;28;19920;-84
2023/12/06 03:55:34;;;;;;;;;;;;;;;5.40;nan;101257.03;5089889;28;20007;-84
2023/12/06 03:57:59;;;;;;;;;;;;;;;5.42;nan;101252.34;5066182;28;20018;-84
2023/12/06 04:00:24;;;;;;;;;;;;;;;5.44;nan;101254.78;5093379;28;19916;-84
2023/12/06 04:02:50;;;;;;;;;;;;;;;5.47;nan;101262.38;5091010;28;19920;-84
2023/12/06 04:05:15;;;;;;;;;;;;;;;5.48;nan;101258.69;5087210;28;19959;-84
2023/12/06 04:07:40;;;;;;;;;;;;;;;5.49;nan;101262.97;5081809;28;19989;-84
2023/12/06 04:10:06;;;;;;;;;;;;;;;5.49;nan;101256.84;5087863;28;19923;-84
2023/12/06 04:12:31;;;;;;;;;;;;;;;5.48;nan;101250.72;5074309;28;19970;-85
2023/12/06 04:14:57;;;;;;;;;;;;;;;5.46;nan;101255.41;5088242;28;20273;-84
2023/12/06 04:17:22;;;;;;;;;;;;;;;5.45;nan;101249.28;5089758;28;20634;-84
2023/12/06 04:19:47;;;;;;;;;;;;;;;5.42;nan;101243.56;5090031;28;19930;-84
2023/12/06 04:22:12;;;;;;;;;;;;;;;5.40;nan;101245.59;5091241;28;20481;-84
2023/12/06 04:24:38;;;;;;;;;;;;;;;5.36;nan;101244.34;5089717;28;20419;-84
2023/12/06 04:27:03;;;;;;;;;;;;;;;5.34;nan;101255.16;5099593;28;20541;-84
2023/12/06 04:29:29;;;;;;;;;;;;;;;5.34;nan;101262.31;5087529;28;19965;-85
2023/12/06 04:31:54;;;;;;;;;;;;;;;5.32;nan;101269.69;5093417;28;19958;-84
2023/12/06 04:34:20;;;;;;;;;;;;;;;5.32;nan;101267.03;5090395;28;19920;-84
2023/12/06 04:36:45;;;;;;;;;;;;;;;5.31;nan;101268.88;5089287;28;20520;-84
2023/12/06 04:39:10;;;;;;;;;;;;;;;5.32;nan;101275.00;5093529;28;19916;-84
2023/12/06 04:41:36;;;;;;;;;;;;;;;5.27;nan;101267.63;5090903;28;19963;-84
2023/12/06 04:44:02;;;;;;;;;;;;;;;5.26;nan;101265.19;5089042;28;19981;-84
2023/12/06 04:46:27;;;;;;;;;;;;;;;5.25;nan;101258.22;5093295;28;19915;-84
2023/12/06 04:48:52;;;;;;;;;;;;;;;5.23;nan;101263.75;5091783;28;20307;-84
2023/12/06 04:51:18;;;;;;;;;;;;;;;5.23;nan;101266.41;5091509;28;19974;-83
2023/12/06 04:53:43;;;;;;;;;;;;;;;5.20;nan;101260.66;5089157;28;19927;-84
2023/12/06 04:56:09;;;;;;;;;;;;;;;5.20;nan;101261.47;5097171;28;20514;-84
2023/12/06 04:58:34;;;;;;;;;;;;;;;5.22;nan;101269.25;5091771;28;19981;-84
2023/12/06 05:00:59;;;;;;;;;;;;;;;5.25;nan;101258.22;5091592;28;19961;-84
2023/12/06 05:03:25;;;;;;;;;;;;;;;5.25;nan;101255.56;5088782;28;19924;-84
2023/12/06 05:05:50;;;;;;;;;;;;;;;5.29;nan;101259.47;5090369;28;19927;-84
2023/12/06 05:08:16;;;;;;;;;;;;;;;5.29;nan;101260.28;5094637;28;19916;-84
2023/12/06 05:10:42;;;;;;;;;;;;;;;5.28;nan;101258.66;5089025;28;19920;-84
2023/12/06 05:13:07;;;;;;;;;;;;;;;5.25;nan;101255.56;5092820;28;19920;-84
2023/12/06 05:15:33;;;;;;;;;;;;;;;5.24;nan;101254.75;5087140;28;19924;-84
2023/12/06 05:17:58;;;;;;;;;;;;;;;5.24;nan;101254.75;5088255;28;20574;-84
2023/12/06 05:20:23;;;;;;;;;;;;;;;5.23;nan;101257.63;5087280;28;20675;-84
2023/12/06 05:22:48;;;;;;;;;;;;;;;5.25;nan;101260.88;5089838;28;20403;-84
2023/12/06 05:25:14;;;;;;;;;;;;;;;5.24;nan;101261.91;5089810;28;19924;-83
2023/12/06 05:27:39;;;;;;;;;;;;;;;5.26;nan;101259.88;5084181;28;19943;-84
2023/12/06 05:30:06;;;;;;;;;;;;;;;5.29;nan;101265.59;5086256;28;19920;-84
2023/12/06 05:32:31;;;;;;;;;;;;;;;5.31;nan;101268.03;5092197;28;20058;-86
2023/12/06 05:34:57;;;;;;;;;;;;;;;5.32;nan;101254.56;5089387;28;19995;-84
2023/12/06 05:37:22;;;;;;;;;;;;;;;5.30;nan;101258.44;5097569;28;20708;-84
2023/12/06 05:39:48;;;;;;;;;;;;;;;5.26;nan;101255.38;5085001;28;20331;-84
2023/12/06 05:42:13;;;;;;;;;;;;;;;5.26;nan;101254.56;5088202;28;20541;-85
2023/12/06 05:44:39;;;;;;;;;;;;;;;5.25;nan;101263.53;5086556;28;19926;-84
2023/12/06 05:47:04;;;;;;;;;;;;;;;5.24;nan;101257.41;5091645;28;20017;-85
2023/12/06 05:49:29;;;;;;;;;;;;;;;5.26;nan;101257.22;5086715;28;20019;-84
2023/12/06 05:51:54;;;;;;;;;;;;;;;5.28;nan;101263.13;5087993;28;19947;-85
2023/12/06 05:54:20;;;;;;;;;;;;;;;5.32;nan;101264.38;5091022;28;20591;-85
2023/12/06 05:56:45;;;;;;;;;;;;;;;5.31;nan;101262.72;5091102;28;19916;-85
2023/12/06 05:59:11;;;;;;;;;;;;;;;5.35;nan;101269.28;5087746;28;19924;-85
2023/12/06 06:01:36;;;;;;;;;;;;;;;5.35;nan;101263.97;5087850;28;19917;-85
2023/12/06 06:04:01;;;;;;;;;;;;;;;5.37;nan;101265.41;5093245;28;19935;-85
2023/12/06 06:06:31;;;;;;;;;;;;;;;5.39;nan;101267.88;5092465;28;19922;-84
2023/12/06 06:08:57;;;;;;;;;;;;;;;5.37;nan;101264.56;5090285;28;19923;-85
2023/12/06 06:11:22;;;;;;;;;;;;;;;5.36;nan;101268.25;5090356;28;20433;-85
2023/12/06 06:13:47;;;;;;;;;;;;;;;5.35;nan;101264.78;5069570;28;20473;-85
2023/12/06 06:16:17;;;;;;;;;;;;;;;5.36;nan;101265.59;5087693;28;19939;-85
2023/12/06 06:18:42;;;;;;;;;;;;;;;5.38;nan;101268.88;5088585;28;19928;-85
2023/12/06 06:21:08;;;;;;;;;;;;;;;5.39;nan;101266.03;5093513;28;19920;-85
2023/12/06 06:23:33;;;;;;;;;;;;;;;5.41;nan;101268.50;5089544;28;20478;-85
2023/12/06 06:25:59;;;;;;;;;;;;;;;5.39;nan;101263.38;5091294;28;20281;-85
2023/12/06 06:28:24;;;;;;;;;;;;;;;5.37;nan;101261.91;5091809;28;20082;-86
2023/12/06 06:30:49;;;;;;;;;;;;;;;5.37;nan;101256.59;5085441;28;19923;-85
2023/12/06 06:33:14;;;;;;;;;;;;;;;5.38;nan;101258.25;5084622;28;20299;-85
2023/12/06 06:35:40;;;;;;;;;;;;;;;5.37;nan;101256.59;5085874;28;20422;-86
2023/12/06 06:38:05;;;;;;;;;;;;;;;5.33;nan;101253.53;5084228;28;19923;-86
2023/12/06 06:40:30;;;;;;;;;;;;;;;5.31;nan;101257.41;5087561;28;19957;-85
2023/12/06 06:42:56;;;;;;;;;;;;;;;5.31;nan;101252.09;5089301;28;19924;-86
2023/12/06 06:45:21;;;;;;;;;;;;;;;5.30;nan;101267.22;5073280;28;19985;-85
2023/12/06 06:47:46;;;;;;;;;;;;;;;5.30;nan;101264.56;5087050;28;19923;-86
2023/12/06 06:50:12;;;;;;;;;;;;;;;5.30;nan;101266.41;5093160;28;20002;-86
2023/12/06 06:52:37;;;;;;;;;;;;;;;5.33;nan;101271.31;5072446;28;19920;-85
2023/12/06 06:55:03;;;;;;;;;;;;;;;5.33;nan;101272.13;5091098;28;19955;-86
2023/12/06 06:57:29;;;;;;;;;;;;;;;5.33;nan;101280.09;5086745;28;19939;-85
2023/12/06 06:59:54;;;;;;;;;;;;;;;5.33;nan;101287.25;5085237;28;19946;-86
2023/12/06 07:02:19;;;;;;;;;;;;;;;5.33;nan;101287.25;5090382;28;19920;-85
2023/12/06 07:04:45;;;;;;;;;;;;;;;5.33;nan;101281.94;5087523;28;19927;-85
2023/12/06 07:07:10;;;;;;;;;;;;;;;5.32;nan;101285.63;5091758;28;19920;-85
2023/12/06 07:09:36;;;;;;;;;;;;;;;5.31;nan;101289.31;5093694;28;19916;-85
2023/12/06 07:12:02;;;;;;;;;;;;;;;5.29;nan;101281.53;5090579;28;20405;-85
2023/12/06 07:14:27;;;;;;;;;;;;;;;5.29;nan;101292.16;5076707;28;20312;-85
2023/12/06 07:16:54;;;;;;;;;;;;;;;5.28;nan;101292.38;5089200;28;19923;-85
2023/12/06 07:19:19;;;;;;;;;;;;;;;5.27;nan;101296.84;5093401;28;19919;-86
2023/12/06 07:21:45;;;;;;;;;;;;;;;5.29;nan;101299.31;5095229;28;19926;-86
2023/12/06 07:24:11;;;;;;;;;;;;;;;5.28;nan;101301.16;5072519;28;19920;-85
2023/12/06 07:26:37;;;;;;;;;;;;;;;5.30;nan;101295.63;5087655;28;20360;-85
2023/12/06 07:29:02;;;;;;;;;;;;;;;5.29;nan;101299.31;5090425;28;19916;-85
2023/12/06 07:31:27;;;;;;;;;;;;;;;5.29;nan;101302.78;5088236;28;19922;-85
2023/12/06 07:33:52;;;;;;;;;;;;;;;5.29;nan;101307.28;5088804;28;19996;-85
2023/12/06 07:36:18;;;;;;;;;;;;;;;5.29;nan;101308.09;5091703;28;19916;-85
2023/12/06 07:38:43;;;;;;;;;;;;;;;5.31;nan;101310.56;5070078;28;19924;-86
2023/12/06 07:41:09;;;;;;;;;;;;;;;5.33;nan;101301.38;5092551;28;19923;-86
2023/12/06 07:43:34;;;;;;;;;;;;;;;5.36;nan;101316.09;5086319;28;19951;-86
2023/12/06 07:45:59;;;;;;;;;;;;;;;5.34;nan;101316.28;5089539;28;19916;-86
2023/12/06 07:48:25;;;;;;;;;;;;;;;5.34;nan;101323.44;5089262;28;20331;-86
2023/12/06 07:50:51;;;;;;;;;;;;;;;5.32;nan;101320.16;5092176;28;20277;-86
2023/12/06 07:53:16;;;;;;;;;;;;;;;5.33;nan;101321.81;5089391;28;19920;-86
2023/12/06 07:55:42;;;;;;;;;;;;;;;5.31;nan;101327.31;5092058;28;19916;-86
2023/12/06 07:58:07;;;;;;;;;;;;;;;5.32;nan;101334.28;5077229;28;20380;-86
2023/12/06 08:00:33;;;;;;;;;;;;;;;5.31;nan;101322.00;5091818;28;19916;-86
2023/12/06 08:02:59;;;;;;;;;;;;;;;5.34;nan;101326.09;5094483;28;19965;-86
2023/12/06 08:05:24;;;;;;;;;;;;;;;5.35;nan;101325.91;5092654;28;19919;-86
2023/12/06 08:07:49;;;;;;;;;;;;;;;5.38;nan;101327.34;5093070;28;19927;-87
2023/12/06 08:10:22;;;;;;;;;;;;;;;5.39;nan;101335.13;5093126;28;19920;-86
2023/12/06 08:12:48;;;;;;;;;;;;;;;5.43;nan;101335.53;5089849;28;19943;-87
2023/12/06 08:15:14;;;;;;;;;;;;;;;5.46;nan;101338.63;5093255;28;19939;-86
2023/12/06 08:17:40;;;;;;;;;;;;;;;5.48;nan;101346.38;5095476;28;20396;-88
2023/12/06 08:20:07;;;;;;;;;;;;;;;5.54;nan;101336.78;5074194;28;20353;-86
2023/12/06 08:22:32;;;;;;;;;;;;;;;5.56;nan;101335.56;5089537;28;19955;-85
2023/12/06 08:24:57;;;;;;;;;;;;;;;5.58;nan;101340.72;5092585;28;19966;-86
2023/12/06 08:27:29;;;;;;;;;;;;;;;5.57;nan;101339.06;5091914;28;19924;-86
2023/12/06 08:29:55;;;;;;;;;;;;;;;5.56;nan;101343.53;5084086;28;19935;-86
2023/12/06 08:32:20;;;;;;;;;;;;;;;5.55;nan;101349.06;5095405;28;19923;-87
2023/12/06 08:34:46;;;;;;;;;;;;;;;5.56;nan;101348.03;5091544;28;19916;-87
2023/12/06 08:37:13;;;;;;;;;;;;;;;5.56;nan;101351.50;5093343;28;21372;-87
2023/12/06 08:39:39;;;;;;;;;;;;;;;5.57;nan;101347.88;5099256;28;20002;-87
2023/12/06 08:42:05;;;;;;;;;;;;;;;5.58;nan;101351.34;5098388;28;19963;-86
2023/12/06 08:44:30;;;;;;;;;;;;;;;5.58;nan;101351.34;5088082;28;19943;-87
2023/12/06 08:46:57;;;;;;;;;;;;;;;5.61;nan;101350.94;5095788;28;19924;-87
2023/12/06 08:49:22;;;;;;;;;;;;;;;5.62;nan;101355.22;5073781;28;19920;-87
2023/12/06 08:51:47;;;;;;;;;;;;;;;5.62;nan;101349.91;5073579;28;20448;-88
2023/12/06 08:54:12;;;;;;;;;;;;;;;5.62;nan;101344.59;5093968;28;19980;-88
2023/12/06 08:56:38;;;;;;;;;;;;;;;5.62;nan;101353.38;5094018;28;19920;-88
2023/12/06 08:59:04;;;;;;;;;;;;;;;5.61;nan;101351.75;5092373;28;19916;-88
2023/12/06 09:01:29;;;;;;;;;;;;;;;5.63;nan;101352.38;5091069;28;20001;-86
2023/12/06 09:03:54;;;;;;;;;;;;;;;5.63;nan;101346.22;5092480;28;19924;-87
2023/12/06 09:06:20;;;;;;;;;;;;;;;5.63;nan;101347.06;5093166;28;20326;-88
2023/12/06 09:08:45;;;;;;;;;;;;;;;5.65;nan;101347.66;5097265;28;20375;-88
2023/12/06 09:11:10;;;;;;;;;;;;;;;5.64;nan;101346.03;5093352;28;19998;-88
2023/12/06 09:13:36;;;;;;;;;;;;;;;5.66;nan;101356.47;5091732;28;20127;-88
2023/12/06 09:16:01;;;;;;;;;;;;;;;5.65;nan;101352.16;5090851;28;20143;-87
2023/12/06 09:18:27;;;;;;;;;;;;;;;5.67;nan;101356.25;5072858;28;20399;-88
2023/12/06 09:20:54;;;;;;;;;;;;;;;5.69;nan;101356.06;5092676;28;20011;-88
2023/12/06 09:23:19;;;;;;;;;;;;;;;5.68;nan;101355.22;5093847;28;19920;-88
2023/12/06 09:25:44;;;;;;;;;;;;;;;5.70;nan;101358.50;5091814;28;19923;-88
2023/12/06 09:28:11;;;;;;;;;;;;;;;5.72;nan;101367.09;5094047;28;19927;-88
2023/12/06 09:30:36;;;;;;;;;;;;;;;5.76;nan;101367.53;5080463;28;19969;-88
2023/12/06 09:33:02;;;;;;;;;;;;;;;5.79;nan;101371.63;5095994;28;19924;-88
2023/12/06 09:35:27;;;;;;;;;;;;;;;5.82;nan;101371.22;5099576;28;20375;-88
2023/12/06 09:37:52;;;;;;;;;;;;;;;5.83;nan;101372.88;5090845;28;19995;-88
2023/12/06 09:40:19;;;;;;;;;;;;;;;5.84;nan;101374.50;5092137;28;19924;-88
2023/12/06 09:42:47;;;;;;;;;;;;;;;5.83;nan;101367.53;5089947;28;19924;-88
2023/12/06 09:45:14;;;;;;;;;;;;;;;5.84;nan;101374.50;5094091;28;19920;-88
2023/12/06 09:47:42;;;;;;;;;;;;;;;5.85;nan;101370.81;5093760;28;19916;-88
2023/12/06 09:50:10;;;;;;;;;;;;;;;5.87;nan;101377.56;5093659;28;19919;-88
2023/12/06 09:52:35;;;;;;;;;;;;;;;5.88;nan;101379.22;5093862;28;20007;-89
2023/12/06 09:55:00;;;;;;;;;;;;;;;5.88;nan;101371.22;5088197;28;20355;-89
2023/12/06 09:57:26;;;;;;;;;;;;;;;5.88;nan;101370.41;5094512;28;19916;-88
2023/12/06 09:59:51;;;;;;;;;;;;;;;5.93;nan;101376.00;5087499;28;19920;-89
2023/12/06 10:02:17;;;;;;;;;;;;;;;5.93;nan;101373.34;5092595;28;20407;-89
2023/12/06 10:04:42;;;;;;;;;;;;;;;5.93;nan;101374.16;5091656;28;19933;-89
2023/12/06 10:07:08;;;;;;;;;;;;;;;5.93;nan;101378.66;5093422;28;20045;-89
2023/12/06 10:09:33;;;;;;;;;;;;;;;5.93;nan;101371.50;5094307;28;19967;-90
2023/12/06 10:12:08;;;;;;;;;;;;;;;5.95;nan;101365.97;5092979;28;19912;-89
2023/12/06 10:14:34;;;;;;;;;;;;;;;5.94;nan;101365.16;5090609;28;20344;-89
2023/12/06 10:17:00;;;;;;;;;;;;;;;5.92;nan;101361.84;5092487;28;20019;-89
2023/12/06 10:19:25;;;;;;;;;;;;;;;5.90;nan;101363.91;5093422;28;19916;-89
2023/12/06 10:21:52;;;;;;;;;;;;;;;5.93;nan;101368.03;5075315;28;20003;-89
2023/12/06 10:24:17;;;;;;;;;;;;;;;5.91;nan;101354.06;5092549;28;20395;-90
2023/12/06 10:26:43;;;;;;;;;;;;;;;5.88;nan;101357.13;5092257;28;19916;-90
2023/12/06 10:29:09;;;;;;;;;;;;;;;5.87;nan;101356.28;5092051;28;20007;-90
2023/12/06 10:31:42;;;;;;;;;;;;;;;5.89;nan;101345.44;5084772;28;20006;-89
2023/12/06 10:34:08;;;;;;;;;;;;;;;5.91;nan;101352.22;5086894;28;20346;-90
2023/12/06 10:36:33;;;;;;;;;;;;;;;5.92;nan;101337.09;5095390;28;19916;-89
2023/12/06 10:38:59;;;;;;;;;;;;;;;5.92;nan;101351.22;5099002;28;20303;-90
2023/12/06 10:41:30;;;;;;;;;;;;;;;5.95;nan;101350.00;5096442;28;19940;-90
2023/12/06 10:43:56;;;;;;;;;;;;;;;6.00;nan;101339.56;5096009;28;19953;-90
2023/12/06 10:46:23;;;;;;;;;;;;;;;6.02;nan;101340.19;5096069;28;19920;-89
2023/12/06 10:48:50;;;;;;;;;;;;;;;6.04;nan;101335.47;5095953;28;19916;-90
2023/12/06 10:51:16;;;;;;;;;;;;;;;6.06;nan;101331.59;5103513;28;20064;-90
2023/12/06 10:53:42;;;;;;;;;;;;;;;6.07;nan;101333.22;5101675;28;19916;-90
2023/12/06 10:56:09;;;;;;;;;;;;;;;6.05;nan;101331.78;5093405;28;20455;-89
2023/12/06 10:58:34;;;;;;;;;;;;;;;6.05;nan;101326.47;5092353;28;19956;-90
2023/12/06 11:01:01;;;;;;;;;;;;;;;6.03;nan;101320.53;5099889;28;19919;-90
2023/12/06 11:03:27;;;;;;;;;;;;;;;6.00;nan;101324.44;5098481;28;19916;-90
2023/12/06 11:05:53;;;;;;;;;;;;;;;6.01;nan;101322.59;5096420;28;19920;-89
2023/12/06 11:08:28;;;;;;;;;;;;;;;5.99;nan;101322.78;5080285;28;19920;-90
2023/12/06 11:11:06;;;;;;;;;;;;;;;5.98;nan;101325.66;5096382;28;19949;-90
2023/12/06 11:13:37;;;;;;;;;;;;;;;5.96;nan;101327.72;5094877;28;20194;-90
2023/12/06 11:16:12;;;;;;;;;;;;;;;5.95;nan;101328.72;5098284;28;19924;-90
2023/12/06 11:18:44;;;;;;;;;;;;;;;5.98;nan;101330.97;5098252;28;19920;-90
2023/12/06 11:21:11;;;;;;;;;;;;;;;6.03;nan;101329.34;5097841;28;20387;-89
2023/12/06 11:23:37;;;;;;;;;;;;;;;6.07;nan;101329.75;5091473;28;19916;-89
2023/12/06 11:26:03;;;;;;;;;;;;;;;6.09;nan;101327.69;5098966;28;19916;-90
2023/12/06 11:28:36;;;;;;;;;;;;;;;6.13;nan;101326.28;5092435;28;20279;-90
2023/12/06 11:31:01;;;;;;;;;;;;;;;6.16;nan;101325.88;5095934;28;19922;-91
2023/12/06 11:33:26;;;;;;;;;;;;;;;6.19;nan;101329.97;5097000;28;19912;-90
2023/12/06 11:35:53;;;;;;;;;;;;;;;6.18;nan;101331.81;5097300;28;19927;-90
2023/12/06 11:38:18;;;;;;;;;;;;;;;6.19;nan;101336.09;5096854;28;19955;-91
2023/12/06 11:40:50;;;;;;;;;;;;;;;6.19;nan;101332.63;5096893;28;19916;-90
2023/12/06 11:43:16;;;;;;;;;;;;;;;6.19;nan;101328.13;5095939;28;19912;-90
2023/12/06 11:45:42;;;;;;;;;;;;;;;6.20;nan;101324.44;5096146;28;19951;-91
2023/12/06 11:48:11;;;;;;;;;;;;;;;6.22;nan;101329.56;5080130;28;19926;-91
2023/12/06 11:50:46;;;;;;;;;;;;;;;6.24;nan;101324.84;5098212;28;19916;-92
2023/12/06 11:53:12;;;;;;;;;;;;;;;6.27;nan;101322.56;5095258;28;20541;-91
2023/12/06 11:55:38;;;;;;;;;;;;;;;6.29;nan;101328.53;5100452;28;19916;-91
2023/12/06 11:58:07;;;;;;;;;;;;;;;6.31;nan;101315.84;5097841;28;19912;-91
2023/12/06 12:00:34;;;;;;;;;;;;;;;6.34;nan;101314.63;5094481;28;19919;-92
2023/12/06 12:03:01;;;;;;;;;;;;;;;6.33;nan;101305.00;5081249;28;20379;-92
2023/12/06 12:05:26;;;;;;;;;;;;;;;6.33;nan;101311.13;5098564;28;19980;-92
2023/12/06 12:07:52;;;;;;;;;;;;;;;6.32;nan;101314.81;5101238;28;20394;-93
2023/12/06 12:10:19;;;;;;;;;;;;;;;6.30;nan;101316.88;5099241;28;19963;-92
2023/12/06 12:12:45;;;;;;;;;;;;;;;6.30;nan;101322.19;5102568;28;19916;-91
2023/12/06 12:15:10;;;;;;;;;;;;;;;6.32;nan;101319.31;5091755;28;19920;-93
2023/12/06 12:17:35;;;;;;;;;;;;;;;6.32;nan;101317.47;5085234;28;20023;-93
2023/12/06 12:20:03;;;;;;;;;;;;;;;6.33;nan;101316.47;5097576;28;20009;-92
2023/12/06 12:22:28;;;;;;;;;;;;;;;6.34;nan;101323.41;5093596;28;19919;-93
2023/12/06 12:24:55;;;;;;;;;;;;;;;6.35;nan;101313.59;5093364;28;19924;-93
2023/12/06 12:27:20;;;;;;;;;;;;;;;6.32;nan;101319.31;5099067;28;19924;-94
2023/12/06 12:29:47;;;;;;;;;;;;;;;6.29;nan;101317.09;5091372;28;19924;-94
2023/12/06 12:32:12;;;;;;;;;;;;;;;6.29;nan;101317.09;5097765;28;19979;-94
2023/12/06 12:34:38;;;;;;;;;;;;;;;6.32;nan;101327.31;5093765;28;19927;-94
2023/12/06 12:37:03;;;;;;;;;;;;;;;6.38;nan;101323.81;5093877;28;20450;-95
2023/12/06 12:39:29;;;;;;;;;;;;;;;6.39;nan;101322.78;5097876;28;19990;-94
2023/12/06 12:41:58;;;;;;;;;;;;;;;6.44;nan;101328.31;5075387;28;19974;-94
2023/12/06 12:44:23;;;;;;;;;;;;;;;6.48;nan;101320.75;5091469;28;19967;-95
2023/12/06 12:46:48;;;;;;;;;;;;;;;6.54;nan;101330.56;5088098;28;20211;-96
2023/12/06 12:49:14;;;;;;;;;;;;;;;6.53;nan;101331.59;5090157;28;20323;-96
2023/12/06 12:51:39;;;;;;;;;;;;;;;6.53;nan;101343.06;5094320;28;19916;-96
2023/12/06 12:54:04;;;;;;;;;;;;;;;6.54;nan;101336.69;5092331;28;21450;-96
2023/12/06 12:56:30;;;;;;;;;;;;;;;6.54;nan;101344.69;5091674;28;19963;-96
2023/12/06 12:58:55;;;;;;;;;;;;;;;6.52;nan;101327.28;5090072;28;19943;-96
2023/12/06 13:01:20;;;;;;;;;;;;;;;6.51;nan;101329.13;5095712;28;19955;-96